createdAt,value
2022-10-02T00:01:58.128Z,0.13
2022-10-02T00:04:28.964Z,0.13
2022-10-02T00:07:00.325Z,0.00
2022-10-02T00:09:31.030Z,0.10
2022-10-02T00:12:00.738Z,0.00
2022-10-02T00:14:33.683Z,0.10
2022-10-02T00:17:02.885Z,0.22
2022-10-02T00:19:31.299Z,0.20
2022-10-02T00:22:14.463Z,0.30
2022-10-02T00:24:45.845Z,0.08
2022-10-02T00:27:29.100Z,0.20
2022-10-02T00:30:01.070Z,0.10
2022-10-02T00:32:32.610Z,0.38
2022-10-02T00:35:07.408Z,0.08
2022-10-02T00:37:40.007Z,0.10
2022-10-02T00:40:20.953Z,0.10
2022-10-02T00:43:01.608Z,0.10
2022-10-02T00:45:42.303Z,0.13
2022-10-02T00:48:17.878Z,0.20
2022-10-02T00:50:51.676Z,0.13
2022-10-02T00:53:26.802Z,0.10
2022-10-02T00:56:02.207Z,0.10
2022-10-02T00:58:41.679Z,0.13
2022-10-02T01:01:13.450Z,0.05
2022-10-02T01:03:43.140Z,0.10
2022-10-02T01:06:12.220Z,0.30
2022-10-02T01:08:41.093Z,0.20
2022-10-02T01:11:09.588Z,0.15
2022-10-02T01:13:37.855Z,0.10
2022-10-02T01:16:06.749Z,0.15
2022-10-02T01:18:36.456Z,0.20
2022-10-02T01:21:07.083Z,0.00
2022-10-02T01:23:38.536Z,0.10
2022-10-02T01:26:17.120Z,0.10
2022-10-02T01:28:45.445Z,0.20
2022-10-02T01:31:16.151Z,0.30
2022-10-02T01:33:45.082Z,0.20
2022-10-02T01:36:14.358Z,0.10
2022-10-02T01:38:43.053Z,0.10
2022-10-02T01:41:12.198Z,0.00
2022-10-02T01:43:43.885Z,0.00
2022-10-02T01:46:22.651Z,0.45
2022-10-02T01:48:57.146Z,0.35
2022-10-02T01:51:34.841Z,0.38
2022-10-02T01:54:10.218Z,0.35
2022-10-02T01:56:42.661Z,0.30
2022-10-02T01:59:19.041Z,0.20
2022-10-02T02:01:51.556Z,0.13
2022-10-02T02:04:25.483Z,0.15
2022-10-02T02:06:56.535Z,0.10
2022-10-02T02:09:30.706Z,0.00
2022-10-02T02:12:02.435Z,0.00
2022-10-02T02:14:33.348Z,0.05
2022-10-02T02:17:05.023Z,0.00
2022-10-02T02:19:36.757Z,0.28
2022-10-02T02:22:07.851Z,0.57
2022-10-02T02:24:40.269Z,0.85
2022-10-02T02:27:09.084Z,0.10
2022-10-02T02:29:39.433Z,0.20
2022-10-02T02:32:09.623Z,0.28
2022-10-02T02:34:40.602Z,0.10
2022-10-02T02:37:11.449Z,0.22
2022-10-02T02:39:45.999Z,0.20
2022-10-02T02:42:17.773Z,0.20
2022-10-02T02:44:49.427Z,0.20
2022-10-02T02:47:19.705Z,0.32
2022-10-02T02:49:52.170Z,0.00
2022-10-02T02:52:23.129Z,0.00
2022-10-02T02:54:53.959Z,0.00
2022-10-02T02:57:25.325Z,0.20
2022-10-02T02:59:56.586Z,0.08
2022-10-02T03:02:24.982Z,0.10
2022-10-02T03:04:53.351Z,0.00
2022-10-02T03:07:21.754Z,0.20
2022-10-02T03:09:55.030Z,0.22
2022-10-02T03:12:26.659Z,0.20
2022-10-02T03:15:03.527Z,0.20
2022-10-02T03:17:41.769Z,0.10
2022-10-02T03:20:14.754Z,0.20
2022-10-02T03:22:46.253Z,0.10
2022-10-02T03:25:16.139Z,0.40
2022-10-02T03:27:47.910Z,0.00
2022-10-02T03:30:20.656Z,0.20
2022-10-02T03:32:51.418Z,0.10
2022-10-02T03:35:19.917Z,0.00
2022-10-02T03:37:49.852Z,0.10
2022-10-02T03:40:18.266Z,0.20
2022-10-02T03:42:46.590Z,0.20
2022-10-02T03:45:32.743Z,0.00
2022-10-02T03:48:04.663Z,0.20
2022-10-02T03:50:36.224Z,0.28
2022-10-02T03:53:08.814Z,0.10
2022-10-02T03:55:39.401Z,0.20
2022-10-02T03:58:11.651Z,0.10
2022-10-02T04:00:43.192Z,0.10
2022-10-02T04:03:14.573Z,0.13
2022-10-02T04:05:44.621Z,0.43
2022-10-02T04:08:15.443Z,0.20
2022-10-02T04:10:46.845Z,0.10
2022-10-02T04:13:18.662Z,0.10
2022-10-02T04:15:59.739Z,0.13
2022-10-02T04:18:32.792Z,0.20
2022-10-02T04:21:01.920Z,0.20
2022-10-02T04:23:31.856Z,0.22
2022-10-02T04:26:02.970Z,0.45
2022-10-02T04:28:36.880Z,0.10
2022-10-02T04:31:07.386Z,0.10
2022-10-02T04:33:38.505Z,0.10
2022-10-02T04:36:10.771Z,0.20
2022-10-02T04:38:45.187Z,0.03
2022-10-02T04:41:20.720Z,0.17
2022-10-02T04:43:57.066Z,0.30
2022-10-02T04:46:33.660Z,0.00
2022-10-02T04:49:13.256Z,0.13
2022-10-02T04:51:47.137Z,0.63
2022-10-02T04:54:23.880Z,0.00
2022-10-02T04:56:57.690Z,0.20
2022-10-02T04:59:37.336Z,0.08
2022-10-02T05:02:12.258Z,0.10
2022-10-02T05:07:23.070Z,0.20
2022-10-02T05:09:58.370Z,0.20
2022-10-02T05:12:37.803Z,0.17
2022-10-02T05:15:21.065Z,0.10
2022-10-02T05:17:57.345Z,0.20
2022-10-02T05:20:40.521Z,0.00
2022-10-02T05:23:16.944Z,0.15
2022-10-02T05:25:52.136Z,0.30
2022-10-02T05:28:28.209Z,0.10
2022-10-02T05:31:04.196Z,0.10
2022-10-02T05:33:48.433Z,0.50
2022-10-02T05:36:40.642Z,1.15
2022-10-02T05:39:12.028Z,0.30
2022-10-02T05:41:45.645Z,0.00
2022-10-02T05:44:16.327Z,0.20
2022-10-02T05:46:46.661Z,0.10
2022-10-02T05:49:17.491Z,0.40
2022-10-02T05:51:50.441Z,0.08
2022-10-02T05:54:24.159Z,0.10
2022-10-02T05:56:54.923Z,0.10
2022-10-02T05:59:27.305Z,0.28
2022-10-02T06:01:58.099Z,0.28
2022-10-02T06:04:29.503Z,0.08
2022-10-02T06:06:59.223Z,0.10
2022-10-02T06:09:31.870Z,0.10
2022-10-02T06:12:02.831Z,0.20
2022-10-02T06:14:34.013Z,0.00
2022-10-02T06:17:04.512Z,0.20
2022-10-02T06:19:37.385Z,0.10
2022-10-02T06:22:08.075Z,0.15
2022-10-02T06:24:40.826Z,0.10
2022-10-02T06:27:14.935Z,0.15
2022-10-02T06:29:44.504Z,0.30
2022-10-02T06:32:18.970Z,0.30
2022-10-02T06:34:48.300Z,0.20
2022-10-02T06:37:28.797Z,0.15
2022-10-02T06:40:09.742Z,0.52
2022-10-02T06:42:43.939Z,0.10
2022-10-02T06:45:17.481Z,0.47
2022-10-02T06:47:57.527Z,0.32
2022-10-02T06:50:32.127Z,0.25
2022-10-02T06:53:03.649Z,0.75
2022-10-02T06:55:40.827Z,0.30
2022-10-02T06:58:21.644Z,0.25
2022-10-02T07:00:52.031Z,1.13
2022-10-02T07:03:33.338Z,0.80
2022-10-02T07:06:16.489Z,0.55
2022-10-02T07:09:01.002Z,1.02
2022-10-02T07:11:33.763Z,0.70
2022-10-02T07:14:17.675Z,0.77
2022-10-02T07:17:05.145Z,0.82
2022-10-02T07:19:54.387Z,0.80
2022-10-02T07:22:43.858Z,0.22
2022-10-02T07:25:24.856Z,0.17
2022-10-02T07:27:57.962Z,0.43
2022-10-02T07:30:26.419Z,0.35
2022-10-02T07:32:59.314Z,0.50
2022-10-02T07:35:41.315Z,1.55
2022-10-02T07:38:21.244Z,0.30
2022-10-02T07:41:00.176Z,0.30
2022-10-02T07:43:39.685Z,0.40
2022-10-02T07:46:16.126Z,0.57
2022-10-02T07:48:58.013Z,0.75
2022-10-02T07:51:50.090Z,0.40
2022-10-02T07:54:40.051Z,2.60
2022-10-02T07:57:16.391Z,1.90
2022-10-02T07:59:46.356Z,2.05
2022-10-02T08:02:20.119Z,1.05
2022-10-02T08:04:49.135Z,0.47
2022-10-02T08:07:17.518Z,0.60
2022-10-02T08:09:48.574Z,0.88
2022-10-02T08:12:26.197Z,1.45
2022-10-02T08:14:56.547Z,1.75
2022-10-02T08:17:28.584Z,1.60
2022-10-02T08:19:59.038Z,1.35
2022-10-02T08:22:28.734Z,2.20
2022-10-02T08:24:59.197Z,2.45
2022-10-02T08:27:31.085Z,2.47
2022-10-02T08:30:03.771Z,2.42
2022-10-02T08:32:34.860Z,1.20
2022-10-02T08:35:03.882Z,1.20
2022-10-02T08:37:35.743Z,0.50
2022-10-02T08:40:29.755Z,0.50
2022-10-02T08:43:17.214Z,0.55
2022-10-02T08:46:02.431Z,0.20
2022-10-02T08:48:54.790Z,0.17
2022-10-02T08:51:41.089Z,0.68
2022-10-02T08:54:24.436Z,0.55
2022-10-02T08:57:01.118Z,0.25
2022-10-02T08:59:53.761Z,0.30
2022-10-02T09:02:45.854Z,0.20
2022-10-02T09:05:33.342Z,0.30
2022-10-02T09:08:21.409Z,0.40
2022-10-02T09:11:05.896Z,0.40
2022-10-02T09:14:05.963Z,0.87
2022-10-02T09:16:38.930Z,0.30
2022-10-02T09:19:19.240Z,0.20
2022-10-02T09:21:52.504Z,0.30
2022-10-02T09:24:41.060Z,0.20
2022-10-02T09:27:39.651Z,0.20
2022-10-02T09:30:28.105Z,0.22
2022-10-02T09:33:21.145Z,0.13
2022-10-02T09:36:08.090Z,0.10
2022-10-02T09:38:51.287Z,0.20
2022-10-02T09:41:40.489Z,0.57
2022-10-02T09:44:35.620Z,0.20
2022-10-02T09:47:24.444Z,0.30
2022-10-02T09:50:06.217Z,0.20
2022-10-02T09:52:55.694Z,0.20
2022-10-02T09:55:36.646Z,0.20
2022-10-02T09:58:13.148Z,0.10
2022-10-02T10:00:53.845Z,0.32
2022-10-02T10:03:40.211Z,0.10
2022-10-02T10:06:19.050Z,0.10
2022-10-02T10:09:03.702Z,0.30
2022-10-02T10:11:51.074Z,0.30
2022-10-02T10:14:31.682Z,0.20
2022-10-02T10:17:19.250Z,1.00
2022-10-02T10:20:08.802Z,0.22
2022-10-02T10:22:45.571Z,0.50
2022-10-02T10:25:28.257Z,0.05
2022-10-02T10:28:12.084Z,0.30
2022-10-02T10:30:55.888Z,0.50
2022-10-02T10:33:34.684Z,0.17
2022-10-02T10:36:30.716Z,0.40
2022-10-02T10:39:02.906Z,0.30
2022-10-02T10:42:01.767Z,0.20
2022-10-02T10:44:47.867Z,0.17
2022-10-02T10:47:33.755Z,0.30
2022-10-02T10:50:21.387Z,0.63
2022-10-02T10:53:00.308Z,0.35
2022-10-02T10:55:36.347Z,0.20
2022-10-02T10:58:14.977Z,0.20
2022-10-02T11:00:50.493Z,0.65
2022-10-02T11:03:33.658Z,0.40
2022-10-02T11:06:14.697Z,0.30
2022-10-02T11:09:04.647Z,0.45
2022-10-02T11:11:40.618Z,0.20
2022-10-02T11:14:22.236Z,0.20
2022-10-02T11:17:08.506Z,0.20
2022-10-02T11:19:47.628Z,0.30
2022-10-02T11:22:26.560Z,0.28
2022-10-02T11:25:13.271Z,0.10
2022-10-02T11:27:53.217Z,0.00
2022-10-02T11:30:23.423Z,0.10
2022-10-02T11:33:11.744Z,0.10
2022-10-02T11:35:49.555Z,0.40
2022-10-02T11:38:27.386Z,0.10
2022-10-02T11:41:10.733Z,0.55
2022-10-02T11:43:51.491Z,0.20
2022-10-02T11:46:40.723Z,0.10
2022-10-02T11:49:20.250Z,0.10
2022-10-02T11:52:01.963Z,0.00
2022-10-02T11:54:40.165Z,0.40
2022-10-02T11:57:30.255Z,0.10
2022-10-02T12:00:07.693Z,0.10
2022-10-02T12:02:40.052Z,0.05
2022-10-02T12:05:21.611Z,0.10
2022-10-02T12:07:55.547Z,0.10
2022-10-02T12:10:30.606Z,0.40
2022-10-02T12:13:04.549Z,0.30
2022-10-02T12:15:38.142Z,0.00
2022-10-02T12:18:13.019Z,0.10
2022-10-02T12:21:04.394Z,0.00
2022-10-02T12:23:56.432Z,0.30
2022-10-02T12:26:52.835Z,0.15
2022-10-02T12:29:25.157Z,0.10
2022-10-02T12:31:57.620Z,0.40
2022-10-02T12:34:32.600Z,0.15
2022-10-02T12:39:35.013Z,0.10
2022-10-02T12:42:08.384Z,0.20
2022-10-02T12:44:51.559Z,0.10
2022-10-02T12:47:43.550Z,0.10
2022-10-02T12:50:23.292Z,0.10
2022-10-02T12:53:06.098Z,0.00
2022-10-02T12:55:55.316Z,0.00
2022-10-02T12:58:26.709Z,0.03
2022-10-02T13:01:13.032Z,0.20
2022-10-02T13:03:52.416Z,0.10
2022-10-02T13:06:40.472Z,0.13
2022-10-02T13:09:21.968Z,0.10
2022-10-02T13:11:57.129Z,0.05
2022-10-02T13:14:35.005Z,0.08
2022-10-02T13:17:14.002Z,0.17
2022-10-02T13:19:46.270Z,0.35
2022-10-02T13:22:17.113Z,0.40
2022-10-02T13:24:54.931Z,0.17
2022-10-02T13:27:31.563Z,0.15
2022-10-02T13:30:05.647Z,0.13
2022-10-02T13:32:39.447Z,0.35
2022-10-02T13:35:17.290Z,0.00
2022-10-02T13:37:51.604Z,0.68
2022-10-02T13:40:26.211Z,0.20
2022-10-02T13:43:12.283Z,0.20
2022-10-02T13:45:42.671Z,0.10
2022-10-02T13:48:16.127Z,0.00
2022-10-02T13:50:48.995Z,0.17
2022-10-02T13:53:41.215Z,0.20
2022-10-02T13:56:19.726Z,0.38
2022-10-02T13:58:58.895Z,0.50
2022-10-02T14:01:32.657Z,0.22
2022-10-02T14:04:13.479Z,0.20
2022-10-02T14:06:43.507Z,0.10
2022-10-02T14:09:20.761Z,0.30
2022-10-02T14:12:05.281Z,0.10
2022-10-02T14:14:42.715Z,0.43
2022-10-02T14:17:18.652Z,0.32
2022-10-02T14:20:10.708Z,0.25
2022-10-02T14:22:46.492Z,0.30
2022-10-02T14:25:23.828Z,0.30
2022-10-02T14:28:02.212Z,0.22
2022-10-02T14:30:33.727Z,0.10
2022-10-02T14:33:06.207Z,0.10
2022-10-02T14:35:36.267Z,0.00
2022-10-02T14:38:32.690Z,0.10
2022-10-02T14:41:07.968Z,0.35
2022-10-02T14:43:54.558Z,0.25
2022-10-02T14:46:36.077Z,0.40
2022-10-02T14:49:14.555Z,0.10
2022-10-02T14:51:57.976Z,0.40
2022-10-02T14:54:36.344Z,0.10
2022-10-02T14:57:20.271Z,0.70
2022-10-02T15:00:06.340Z,0.25
2022-10-02T15:02:58.593Z,0.10
2022-10-02T15:05:48.539Z,0.10
2022-10-02T15:08:18.002Z,0.10
2022-10-02T15:10:47.057Z,0.10
2022-10-02T15:13:24.884Z,0.10
2022-10-02T15:16:15.732Z,0.20
2022-10-02T15:18:49.966Z,0.30
2022-10-02T15:21:26.399Z,0.63
2022-10-02T15:23:57.617Z,0.17
2022-10-02T15:26:33.150Z,0.10
2022-10-02T15:29:07.526Z,0.13
2022-10-02T15:31:41.756Z,0.20
2022-10-02T15:34:16.817Z,0.10
2022-10-02T15:36:55.434Z,0.10
2022-10-02T15:39:36.371Z,0.10
2022-10-02T15:42:08.850Z,0.40
2022-10-02T15:44:59.337Z,0.60
2022-10-02T15:47:48.612Z,0.60
2022-10-02T15:50:29.135Z,0.60
2022-10-02T15:53:07.212Z,0.30
2022-10-02T15:55:40.036Z,0.52
2022-10-02T15:58:24.399Z,0.82
2022-10-02T16:01:09.005Z,0.55
2022-10-02T16:03:41.539Z,0.17
2022-10-02T16:06:14.760Z,0.30
2022-10-02T16:09:00.982Z,0.10
2022-10-02T16:11:44.172Z,0.10
2022-10-02T16:14:16.622Z,0.10
2022-10-02T16:16:54.630Z,0.10
2022-10-02T16:19:29.487Z,0.00
2022-10-02T16:22:06.746Z,0.05
2022-10-02T16:24:45.227Z,0.10
2022-10-02T16:27:22.057Z,0.20
2022-10-02T16:30:07.765Z,0.30
2022-10-02T16:32:41.044Z,0.10
2022-10-02T16:35:17.838Z,0.20
2022-10-02T16:37:46.623Z,0.93
2022-10-02T16:40:26.894Z,0.60
2022-10-02T16:42:57.875Z,0.50
2022-10-02T16:45:44.048Z,0.38
2022-10-02T16:48:17.154Z,0.45
2022-10-02T16:50:53.660Z,0.28
2022-10-02T16:53:24.996Z,0.30
2022-10-02T16:55:58.623Z,0.10
2022-10-02T16:58:29.869Z,0.13
2022-10-02T17:00:59.805Z,0.28
2022-10-02T17:03:33.682Z,0.45
2022-10-02T17:06:03.533Z,0.25
2022-10-02T17:08:35.453Z,0.95
2022-10-02T17:11:05.742Z,0.90
2022-10-02T17:13:36.654Z,1.17
2022-10-02T17:16:07.518Z,0.43
2022-10-02T17:18:42.517Z,0.70
2022-10-02T17:23:42.437Z,0.50
2022-10-02T17:26:14.600Z,0.10
2022-10-02T17:28:46.838Z,0.45
2022-10-02T17:31:22.127Z,0.52
2022-10-02T17:33:56.717Z,0.40
2022-10-02T17:36:30.574Z,0.40
2022-10-02T17:39:03.557Z,0.17
2022-10-02T17:41:38.883Z,0.20
2022-10-02T17:44:10.699Z,0.30
2022-10-02T17:47:02.509Z,0.50
2022-10-02T17:49:38.924Z,0.10
2022-10-02T17:52:40.116Z,0.15
2022-10-02T17:55:35.268Z,0.20
2022-10-02T17:58:07.194Z,0.38
2022-10-02T18:00:39.667Z,0.57
2022-10-02T18:03:29.027Z,0.30
2022-10-02T18:06:06.769Z,0.20
2022-10-02T18:08:51.575Z,0.30
2022-10-02T18:11:25.220Z,0.43
2022-10-02T18:13:59.646Z,0.40
2022-10-02T18:16:35.061Z,0.43
2022-10-02T18:19:27.724Z,0.30
2022-10-02T18:22:05.145Z,0.50
2022-10-02T18:24:39.761Z,0.32
2022-10-02T18:27:26.865Z,0.45
2022-10-02T18:30:09.074Z,1.20
2022-10-02T18:33:04.850Z,0.40
2022-10-02T18:38:09.177Z,0.17
2022-10-02T18:40:49.933Z,0.10
2022-10-02T18:43:26.108Z,0.38
2022-10-02T18:46:00.258Z,0.10
2022-10-02T18:48:57.160Z,0.28
2022-10-02T18:51:33.434Z,0.30
2022-10-02T18:54:11.826Z,0.30
2022-10-02T18:56:49.435Z,0.10
2022-10-02T18:59:23.237Z,0.03
2022-10-02T19:02:09.810Z,0.20
2022-10-02T19:04:47.191Z,0.25
2022-10-02T19:07:19.434Z,0.20
2022-10-02T19:09:49.175Z,0.30
2022-10-02T19:12:18.927Z,0.40
2022-10-02T19:14:47.696Z,1.10
2022-10-02T19:17:17.934Z,0.40
2022-10-02T19:19:46.293Z,0.20
2022-10-02T19:22:20.115Z,0.13
2022-10-02T19:24:51.270Z,0.10
2022-10-02T19:27:23.250Z,0.38
2022-10-02T19:29:55.915Z,1.08
2022-10-02T19:32:27.426Z,0.30
2022-10-02T19:34:59.919Z,0.30
2022-10-02T19:37:28.383Z,0.40
2022-10-02T19:40:00.716Z,0.15
2022-10-02T19:42:30.720Z,0.93
2022-10-02T19:45:03.136Z,0.40
2022-10-02T19:47:32.781Z,0.15
2022-10-02T19:50:03.266Z,0.38
2022-10-02T19:52:40.617Z,0.38
2022-10-02T19:55:20.141Z,0.20
2022-10-02T19:57:49.555Z,0.30
2022-10-02T20:00:18.762Z,0.40
2022-10-02T20:02:47.983Z,0.17
2022-10-02T20:05:24.211Z,0.30
2022-10-02T20:07:53.699Z,0.20
2022-10-02T20:10:27.159Z,0.25
2022-10-02T20:12:57.979Z,0.45
2022-10-02T20:15:45.386Z,0.15
2022-10-02T20:18:14.719Z,0.22
2022-10-02T20:20:44.008Z,0.40
2022-10-02T20:23:17.077Z,0.43
2022-10-02T20:25:50.960Z,0.32
2022-10-02T20:28:22.772Z,0.35
2022-10-02T20:30:52.268Z,0.20
2022-10-02T20:33:24.400Z,0.17
2022-10-02T20:35:54.816Z,0.20
2022-10-02T20:38:27.552Z,0.30
2022-10-02T20:40:58.405Z,0.15
2022-10-02T20:43:32.798Z,0.20
2022-10-02T20:46:09.734Z,0.30
2022-10-02T20:49:08.365Z,0.25
2022-10-02T20:51:50.581Z,0.68
2022-10-02T20:54:28.626Z,0.10
2022-10-02T20:57:14.916Z,0.30
2022-10-02T21:00:17.035Z,0.20
2022-10-02T21:03:18.534Z,0.22
2022-10-02T21:06:05.127Z,0.10
2022-10-02T21:08:40.533Z,0.10
2022-10-02T21:11:15.350Z,0.52
2022-10-02T21:14:10.874Z,0.20
2022-10-02T21:16:50.267Z,0.38
2022-10-02T21:19:31.175Z,0.22
2022-10-02T21:22:13.947Z,0.20
2022-10-02T21:25:02.271Z,0.10
2022-10-02T21:27:47.387Z,0.45
2022-10-02T21:30:16.416Z,0.30
2022-10-02T21:32:55.624Z,0.40
2022-10-02T21:35:41.454Z,0.10
2022-10-02T21:38:25.578Z,0.25
2022-10-02T21:41:08.425Z,0.20
2022-10-02T21:43:51.111Z,0.10
2022-10-02T21:46:28.787Z,0.38
2022-10-02T21:49:07.817Z,0.10
2022-10-02T21:51:54.422Z,0.10
2022-10-02T21:54:49.886Z,0.20
2022-10-02T21:57:36.474Z,0.10
2022-10-02T22:00:21.862Z,0.10
2022-10-02T22:05:36.035Z,0.20
2022-10-02T22:08:09.653Z,0.20
2022-10-02T22:10:43.340Z,0.50
2022-10-02T22:13:18.197Z,0.20
2022-10-02T22:15:50.697Z,0.10
2022-10-02T22:18:25.737Z,0.10
2022-10-02T22:23:26.820Z,0.25
2022-10-02T22:26:03.254Z,0.20
2022-10-02T22:28:37.656Z,0.20
2022-10-02T22:31:28.772Z,0.25
2022-10-02T22:34:01.355Z,0.08
2022-10-02T22:36:41.643Z,0.20
2022-10-02T22:39:11.401Z,0.40
2022-10-02T22:41:41.376Z,0.10
2022-10-02T22:44:19.795Z,0.45
2022-10-02T22:46:52.755Z,0.20
2022-10-02T22:49:27.131Z,0.28
2022-10-02T22:52:00.761Z,0.30
2022-10-02T22:54:33.183Z,0.20
2022-10-02T22:57:09.732Z,0.35
2022-10-02T22:59:41.114Z,0.30
2022-10-02T23:02:14.398Z,0.15
2022-10-02T23:04:49.146Z,1.77
2022-10-02T23:07:18.442Z,0.20
2022-10-02T23:09:52.375Z,0.20
2022-10-02T23:12:27.777Z,0.15
2022-10-02T23:15:02.586Z,0.40
2022-10-02T23:17:36.884Z,0.20
2022-10-02T23:20:06.840Z,0.40
2022-10-02T23:22:36.837Z,0.50
2022-10-02T23:25:15.553Z,0.20
2022-10-02T23:27:47.811Z,0.35
2022-10-02T23:30:20.021Z,0.15
2022-10-02T23:32:51.731Z,0.30
2022-10-02T23:35:23.827Z,0.45
2022-10-02T23:37:55.375Z,0.55
2022-10-02T23:40:46.679Z,0.40
2022-10-02T23:43:16.661Z,0.47
2022-10-02T23:45:48.466Z,0.25
2022-10-02T23:48:19.982Z,0.40
2022-10-02T23:50:54.645Z,0.30
2022-10-02T23:53:41.268Z,0.28
2022-10-02T23:56:15.597Z,0.85
2022-10-02T23:58:51.506Z,0.45
